Terminal Aerodrome Forecast
Issued by NWS

Home | Current Version | Previous Version | Text Only | Print | Product List | Glossary On
Versions: 1 2 3 4 5 6 7 8 9 10 11 12 13
000
FTUS45 KGGW 281500 AAA
TAFSDY
TAF AMD
KSDY 281504Z 2815/2912 29015KT P6SM SCT019 SCT120
     FM281615 33018KT P6SM OVC019
     FM290900 30009KT P6SM BKN030
      AMD LTD TO CLD VIS AND WIND=

USA.gov is the U.S. government's official web portal to all federal, state and local government web resources and services.